Time;durP1;ratioP1;P1;durP2;ratioP2;P2;SDS_P1;SDS_P2;PMS_P1;PMS_P2;Temp;Humidity;BMP_temperature;BMP_pressure;BME280_temperature;BME280_humidity;BME280_pressure;Samples;Min_cycle;Max_cycle;Signal;HPM_P1;HPM_P2
2022/05/23 00:02:23;;;;;;;;;;;;;;;-145.19;100.00;57938.22;4990978;28;19920;-71
2022/05/23 00:04:48;;;;;;;;;;;;;;;-145.19;100.00;57938.22;4991756;28;19930;-71
2022/05/23 00:07:40;;;;;;;;;;;;;;;-145.19;100.00;57938.22;4990949;28;20008;-71
2022/05/23 00:10:06;;;;;;;;;;;;;;;-145.19;100.00;57938.22;4987631;28;20008;-72
2022/05/23 00:12:31;;;;;;;;;;;;;;;-145.19;100.00;57938.22;4990603;28;19914;-72
2022/05/23 00:14:56;;;;;;;;;;;;;;;-145.19;100.00;57938.22;4991276;28;19973;-71
2022/05/23 00:17:22;;;;;;;;;;;;;;;-145.19;100.00;57938.22;4990915;28;20314;-71
2022/05/23 00:19:47;;;;;;;;;;;;;;;-145.19;100.00;57938.22;4991632;28;19918;-72
2022/05/23 00:22:14;;;;;;;;;;;;;;;-145.19;100.00;57938.22;4991050;28;20015;-71
2022/05/23 00:24:41;;;;;;;;;;;;;;;-145.19;100.00;57938.22;4991223;28;19913;-72
2022/05/23 00:27:08;;;;;;;;;;;;;;;-145.19;100.00;57938.22;4991243;28;20005;-71
2022/05/23 00:29:33;;;;;;;;;;;;;;;-145.19;100.00;57938.22;4990916;28;20378;-71
2022/05/23 00:37:27;;;;;;;;;;;;;;;-145.19;100.00;57938.22;4990937;28;19940;-71
2022/05/23 00:39:53;;;;;;;;;;;;;;;-145.19;100.00;57938.22;4991412;28;19921;-71
2022/05/23 00:45:05;;;;;;;;;;;;;;;-145.19;100.00;57938.22;4991307;28;20474;-71
2022/05/23 00:47:33;;;;;;;;;;;;;;;-145.19;100.00;57938.22;4990809;28;19945;-71
2022/05/23 00:49:58;;;;;;;;;;;;;;;-145.19;100.00;57938.22;4991346;28;20091;-71
2022/05/23 00:52:29;;;;;;;;;;;;;;;-145.19;100.00;57938.22;4990551;28;19921;-71
2022/05/23 00:54:56;;;;;;;;;;;;;;;-145.19;100.00;57938.22;4973812;28;19917;-71
2022/05/23 00:57:30;;;;;;;;;;;;;;;-145.19;100.00;57938.22;4990224;28;20393;-72
2022/05/23 00:59:55;;;;;;;;;;;;;;;-145.19;100.00;57938.22;4991283;28;19920;-71
2022/05/23 01:02:21;;;;;;;;;;;;;;;-145.19;100.00;57938.22;4990466;28;20571;-72
2022/05/23 01:04:47;;;;;;;;;;;;;;;-145.19;100.00;57938.22;4990959;28;20016;-71
2022/05/23 01:07:12;;;;;;;;;;;;;;;-145.19;100.00;57938.22;4990776;28;19921;-71
2022/05/23 01:09:38;;;;;;;;;;;;;;;-145.19;100.00;57938.22;4990662;28;19917;-72
2022/05/23 01:12:04;;;;;;;;;;;;;;;-145.19;100.00;57938.22;4990835;28;20359;-71
2022/05/23 01:14:48;;;;;;;;;;;;;;;-145.19;100.00;57938.22;4991205;28;19918;-71
2022/05/23 01:17:13;;;;;;;;;;;;;;;-145.19;100.00;57938.22;4990590;28;19914;-71
2022/05/23 01:19:38;;;;;;;;;;;;;;;-145.19;100.00;57938.22;4990313;28;19948;-72
2022/05/23 01:22:07;;;;;;;;;;;;;;;-145.19;100.00;57938.22;4990572;28;19917;-71
2022/05/23 01:24:37;;;;;;;;;;;;;;;-145.19;100.00;57938.22;4994551;28;19918;-71
2022/05/23 01:27:05;;;;;;;;;;;;;;;-145.19;100.00;57938.22;4994113;28;20412;-71
2022/05/23 01:29:30;;;;;;;;;;;;;;;-145.19;100.00;57938.22;4994381;28;19949;-72
2022/05/23 01:31:57;;;;;;;;;;;;;;;-145.19;100.00;57938.22;4993964;28;20019;-71
2022/05/23 01:34:23;;;;;;;;;;;;;;;-145.19;100.00;57938.22;4994179;28;19994;-72
2022/05/23 01:36:48;;;;;;;;;;;;;;;-145.19;100.00;57938.22;4994138;28;19956;-71
2022/05/23 01:39:13;;;;;;;;;;;;;;;-145.19;100.00;57938.22;4994290;28;19922;-72
2022/05/23 01:41:38;;;;;;;;;;;;;;;-145.19;100.00;57938.22;4993678;28;19928;-72
2022/05/23 01:44:04;;;;;;;;;;;;;;;-145.19;100.00;57938.22;4994237;28;19968;-71
2022/05/23 01:46:29;;;;;;;;;;;;;;;-145.19;100.00;57938.22;4993589;28;20390;-72
2022/05/23 01:48:54;;;;;;;;;;;;;;;-145.19;100.00;57938.22;4993940;28;20394;-72
2022/05/23 01:51:20;;;;;;;;;;;;;;;-145.19;100.00;57938.22;4993913;28;19984;-72
2022/05/23 01:53:45;;;;;;;;;;;;;;;-145.19;100.00;57938.22;4993867;28;20343;-71
2022/05/23 01:56:10;;;;;;;;;;;;;;;-145.19;100.00;57938.22;4976514;28;19921;-72
2022/05/23 02:03:54;;;;;;;;;;;;;;;-145.19;100.00;57938.22;4997600;22;19922;-71
2022/05/23 02:06:20;;;;;;;;;;;;;;;-145.19;100.00;57938.22;4983857;28;19929;-71
2022/05/23 02:08:45;;;;;;;;;;;;;;;-145.19;100.00;57938.22;4972596;28;20307;-73
2022/05/23 02:11:11;;;;;;;;;;;;;;;-145.19;100.00;57938.22;4973832;28;20041;-73
2022/05/23 02:13:37;;;;;;;;;;;;;;;-145.19;100.00;57938.22;4973772;28;19953;-73
2022/05/23 02:16:03;;;;;;;;;;;;;;;-145.19;100.00;57938.22;4974357;28;20013;-73
2022/05/23 02:18:29;;;;;;;;;;;;;;;-145.19;100.00;57938.22;4973891;28;19921;-73
2022/05/23 02:20:54;;;;;;;;;;;;;;;-145.19;100.00;57938.22;4970995;28;19993;-73
2022/05/23 02:23:19;;;;;;;;;;;;;;;-145.19;100.00;57938.22;4973589;28;19918;-73
2022/05/23 02:25:45;;;;;;;;;;;;;;;-145.19;100.00;57938.22;4974287;28;19936;-73
2022/05/23 02:28:11;;;;;;;;;;;;;;;-145.19;100.00;57938.22;4972775;28;20010;-73
2022/05/23 02:30:36;;;;;;;;;;;;;;;-145.19;100.00;57938.22;4973822;28;20361;-73
2022/05/23 02:33:02;;;;;;;;;;;;;;;-145.19;100.00;57938.22;4973795;28;19918;-73
2022/05/23 02:35:27;;;;;;;;;;;;;;;-145.19;100.00;57938.22;4973615;28;20349;-73
2022/05/23 02:37:52;;;;;;;;;;;;;;;-145.19;100.00;57938.22;4973648;28;19954;-74
2022/05/23 02:40:18;;;;;;;;;;;;;;;-145.19;100.00;57938.22;4973620;28;19922;-73
2022/05/23 02:42:43;;;;;;;;;;;;;;;-145.19;100.00;57938.22;4973432;28;20016;-73
2022/05/23 02:45:09;;;;;;;;;;;;;;;-145.19;100.00;57938.22;4973695;28;20492;-73
2022/05/23 02:47:34;;;;;;;;;;;;;;;-145.19;100.00;57938.22;4973273;28;19977;-73
2022/05/23 02:50:00;;;;;;;;;;;;;;;-145.19;100.00;57938.22;4971398;28;20002;-70
2022/05/23 02:52:25;;;;;;;;;;;;;;;-145.19;100.00;57938.22;4955822;28;20306;-71
2022/05/23 02:54:50;;;;;;;;;;;;;;;-145.19;100.00;57938.22;4973820;28;19928;-71
2022/05/23 02:57:16;;;;;;;;;;;;;;;-145.19;100.00;57938.22;4973070;28;19925;-73
2022/05/23 02:59:41;;;;;;;;;;;;;;;-145.19;100.00;57938.22;4973544;28;20433;-73
2022/05/23 03:04:50;;;;;;;;;;;;;;;-145.19;100.00;57938.22;4973194;28;20385;-73
2022/05/23 03:07:16;;;;;;;;;;;;;;;-145.19;100.00;57938.22;4972776;28;19922;-73
2022/05/23 03:09:43;;;;;;;;;;;;;;;-145.19;100.00;57938.22;4973452;28;19992;-73
2022/05/23 03:12:08;;;;;;;;;;;;;;;-145.19;100.00;57938.22;4972937;28;20009;-73
2022/05/23 03:14:33;;;;;;;;;;;;;;;-145.19;100.00;57938.22;4973172;28;20024;-73
2022/05/23 03:17:00;;;;;;;;;;;;;;;-145.19;100.00;57938.22;4972790;28;19964;-73
2022/05/23 03:19:25;;;;;;;;;;;;;;;-145.19;100.00;57938.22;4972942;28;19918;-71
2022/05/23 03:27:18;;;;;;;;;;;;;;;-145.19;100.00;57938.22;4972395;28;19940;-73
2022/05/23 03:29:44;;;;;;;;;;;;;;;-145.19;100.00;57938.22;4972905;28;20367;-73
2022/05/23 03:32:09;;;;;;;;;;;;;;;-145.19;100.00;57938.22;4972369;28;20414;-73
2022/05/23 03:34:34;;;;;;;;;;;;;;;-145.19;100.00;57938.22;4972550;28;19914;-73
2022/05/23 03:37:00;;;;;;;;;;;;;;;-145.19;100.00;57938.22;4972329;28;19914;-73
2022/05/23 03:39:25;;;;;;;;;;;;;;;-145.19;100.00;57938.22;4972610;28;19981;-73
2022/05/23 03:41:53;;;;;;;;;;;;;;;-145.19;100.00;57938.22;4972629;28;19922;-73
2022/05/23 03:44:19;;;;;;;;;;;;;;;-145.19;100.00;57938.22;4971976;28;19922;-73
2022/05/23 03:46:44;;;;;;;;;;;;;;;-145.19;100.00;57938.22;4971836;28;19968;-70
2022/05/23 03:49:09;;;;;;;;;;;;;;;-145.19;100.00;57938.22;4970468;28;20008;-73
2022/05/23 03:51:36;;;;;;;;;;;;;;;-145.19;100.00;57938.22;4970478;28;19929;-73
2022/05/23 03:54:01;;;;;;;;;;;;;;;-145.19;100.00;57938.22;4972027;28;19914;-73
2022/05/23 03:56:27;;;;;;;;;;;;;;;-145.19;100.00;57938.22;4955106;28;19914;-73
2022/05/23 03:58:52;;;;;;;;;;;;;;;-145.19;100.00;57938.22;4972027;28;19925;-72
2022/05/23 04:01:23;;;;;;;;;;;;;;;-145.19;100.00;57938.22;4972269;28;20323;-73
2022/05/23 04:03:49;;;;;;;;;;;;;;;-145.19;100.00;57938.22;4971827;28;19918;-72
2022/05/23 04:06:14;;;;;;;;;;;;;;;-145.19;100.00;57938.22;4972251;28;19914;-73
2022/05/23 04:08:39;;;;;;;;;;;;;;;-145.19;100.00;57938.22;4971863;28;20450;-73
2022/05/23 04:11:06;;;;;;;;;;;;;;;-145.19;100.00;57938.22;4972286;28;19918;-73
2022/05/23 04:13:31;;;;;;;;;;;;;;;-145.19;100.00;57938.22;4971952;28;19921;-73
2022/05/23 04:15:57;;;;;;;;;;;;;;;-145.19;100.00;57938.22;4972518;28;19918;-73
2022/05/23 04:18:22;;;;;;;;;;;;;;;-145.19;100.00;57938.22;4971447;28;20393;-73
2022/05/23 04:20:47;;;;;;;;;;;;;;;-145.19;100.00;57938.22;4968773;28;19925;-73
2022/05/23 04:23:13;;;;;;;;;;;;;;;-145.19;100.00;57938.22;4970723;28;19925;-73
2022/05/23 04:25:44;;;;;;;;;;;;;;;-145.19;100.00;57938.22;4971856;28;19965;-73
2022/05/23 04:28:09;;;;;;;;;;;;;;;-145.19;100.00;57938.22;4971041;28;19914;-73
2022/05/23 04:30:34;;;;;;;;;;;;;;;-145.19;100.00;57938.22;4971693;28;19922;-73
2022/05/23 04:35:44;;;;;;;;;;;;;;;-145.19;100.00;57938.22;4971670;28;19929;-73
2022/05/23 04:38:09;;;;;;;;;;;;;;;-145.19;100.00;57938.22;4976549;28;19918;-73
2022/05/23 04:40:34;;;;;;;;;;;;;;;-145.19;100.00;57938.22;4979236;28;19949;-73
2022/05/23 04:43:00;;;;;;;;;;;;;;;-145.19;100.00;57938.22;4981537;28;19917;-73
2022/05/23 04:45:25;;;;;;;;;;;;;;;-145.19;100.00;57938.22;4973698;28;20445;-73
2022/05/23 04:50:35;;;;;;;;;;;;;;;-145.19;100.00;57938.22;4969001;28;20285;-74
2022/05/23 04:53:01;;;;;;;;;;;;;;;-145.19;100.00;57938.22;4971405;28;19918;-73
2022/05/23 04:55:26;;;;;;;;;;;;;;;-145.19;100.00;57938.22;4971950;28;20326;-73
2022/05/23 04:57:52;;;;;;;;;;;;;;;-145.19;100.00;57938.22;4972670;28;19959;-73
2022/05/23 05:00:19;;;;;;;;;;;;;;;-145.19;100.00;57938.22;4975566;28;19973;-73
2022/05/23 05:02:45;;;;;;;;;;;;;;;-145.19;100.00;57938.22;4974327;28;20386;-73
2022/05/23 05:05:12;;;;;;;;;;;;;;;-145.19;100.00;57938.22;4975436;28;20363;-72
2022/05/23 05:07:37;;;;;;;;;;;;;;;-145.19;100.00;57938.22;4975410;28;19921;-72
2022/05/23 05:10:03;;;;;;;;;;;;;;;-145.19;100.00;57938.22;4974793;28;19937;-72
2022/05/23 05:12:29;;;;;;;;;;;;;;;-145.19;100.00;57938.22;4974793;28;19926;-72
2022/05/23 05:14:54;;;;;;;;;;;;;;;-145.19;100.00;57938.22;4974942;28;19972;-72
2022/05/23 05:17:19;;;;;;;;;;;;;;;-145.19;100.00;57938.22;4974368;28;19926;-72
2022/05/23 05:19:45;;;;;;;;;;;;;;;-145.19;100.00;57938.22;4973799;28;20287;-73
2022/05/23 05:22:10;;;;;;;;;;;;;;;-145.19;100.00;57938.22;4982083;28;19984;-72
2022/05/23 05:24:36;;;;;;;;;;;;;;;-145.19;100.00;57938.22;4979844;28;19922;-74
2022/05/23 05:27:02;;;;;;;;;;;;;;;-145.19;100.00;57938.22;4991845;28;19925;-73
2022/05/23 05:29:27;;;;;;;;;;;;;;;-145.19;100.00;57938.22;4974722;28;19960;-72
2022/05/23 05:32:01;;;;;;;;;;;;;;;-145.19;100.00;57938.22;4979090;28;19976;-73
2022/05/23 05:34:36;;;;;;;;;;;;;;;-145.19;100.00;57938.22;4994161;28;19914;-73
2022/05/23 05:37:05;;;;;;;;;;;;;;;-145.19;100.00;57938.22;4994123;28;19914;-73
2022/05/23 05:39:32;;;;;;;;;;;;;;;-145.19;100.00;57938.22;4993863;28;19948;-73
2022/05/23 05:42:07;;;;;;;;;;;;;;;-145.19;100.00;57938.22;4977218;28;19919;-73
2022/05/23 05:44:33;;;;;;;;;;;;;;;-145.19;100.00;57938.22;4973975;28;19921;-73
2022/05/23 05:47:01;;;;;;;;;;;;;;;-145.19;100.00;57938.22;4974680;28;19937;-73
2022/05/23 05:49:28;;;;;;;;;;;;;;;-145.19;100.00;57938.22;4973171;28;19914;-73
2022/05/23 05:51:56;;;;;;;;;;;;;;;-145.19;100.00;57938.22;4974545;28;19997;-73
2022/05/23 05:54:22;;;;;;;;;;;;;;;-145.19;100.00;57938.22;4973885;28;19921;-73
2022/05/23 05:56:48;;;;;;;;;;;;;;;-145.19;100.00;57938.22;4974449;28;19921;-73
2022/05/23 05:59:14;;;;;;;;;;;;;;;-145.19;100.00;57938.22;4989255;28;19918;-71
2022/05/23 06:01:40;;;;;;;;;;;;;;;-145.19;100.00;57938.22;4971028;28;19922;-71
2022/05/23 06:04:06;;;;;;;;;;;;;;;-145.19;100.00;57938.22;4972443;28;19922;-73
2022/05/23 06:11:59;;;;;;;;;;;;;;;-145.19;100.00;57938.22;4973159;28;19925;-73
2022/05/23 06:14:25;;;;;;;;;;;;;;;-145.19;100.00;57938.22;4955677;28;19918;-73
2022/05/23 06:16:50;;;;;;;;;;;;;;;-145.19;100.00;57938.22;4973463;28;20005;-73
2022/05/23 06:19:15;;;;;;;;;;;;;;;-145.19;100.00;57938.22;4954905;28;20391;-73
2022/05/23 06:21:41;;;;;;;;;;;;;;;-145.19;100.00;57938.22;4973826;28;20037;-73
2022/05/23 06:24:06;;;;;;;;;;;;;;;-145.19;100.00;57938.22;4973093;28;19953;-73
2022/05/23 06:26:31;;;;;;;;;;;;;;;-145.19;100.00;57938.22;4974043;28;19933;-73
2022/05/23 06:28:56;;;;;;;;;;;;;;;-145.19;100.00;57938.22;4973504;28;19924;-73
2022/05/23 06:31:22;;;;;;;;;;;;;;;-145.19;100.00;57938.22;4973842;28;19969;-73
2022/05/23 06:33:48;;;;;;;;;;;;;;;-145.19;100.00;57938.22;4973706;28;19926;-73
2022/05/23 06:36:14;;;;;;;;;;;;;;;-145.19;100.00;57938.22;4973801;28;19918;-73
2022/05/23 06:38:40;;;;;;;;;;;;;;;-145.19;100.00;57938.22;4973716;28;20351;-73
2022/05/23 06:41:06;;;;;;;;;;;;;;;-145.19;100.00;57938.22;4973736;28;19953;-72
2022/05/23 06:43:32;;;;;;;;;;;;;;;-145.19;100.00;57938.22;4973135;28;19945;-73
2022/05/23 06:45:59;;;;;;;;;;;;;;;-145.19;100.00;57938.22;4973870;28;19918;-73
2022/05/23 06:48:24;;;;;;;;;;;;;;;-145.19;100.00;57938.22;4972826;28;19918;-73
2022/05/23 06:50:50;;;;;;;;;;;;;;;-145.19;100.00;57938.22;4973650;28;19925;-73
2022/05/23 06:53:16;;;;;;;;;;;;;;;-145.19;100.00;57938.22;4973007;28;19922;-73
2022/05/23 06:55:42;;;;;;;;;;;;;;;-145.19;100.00;57938.22;4973395;28;19929;-73
2022/05/23 06:58:07;;;;;;;;;;;;;;;-145.19;100.00;57938.22;4972764;28;20012;-70
2022/05/23 07:00:33;;;;;;;;;;;;;;;-145.19;100.00;57938.22;4973429;28;19922;-71
2022/05/23 07:02:58;;;;;;;;;;;;;;;-145.19;100.00;57938.22;4972611;28;19953;-70
2022/05/23 07:13:35;;;;;;;;;;;;;;;-145.19;100.00;57938.22;4972876;28;19964;-71
2022/05/23 07:16:01;;;;;;;;;;;;;;;-145.19;100.00;57938.22;4972704;28;20279;-71
2022/05/23 07:18:27;;;;;;;;;;;;;;;-145.19;100.00;57938.22;4972107;28;19951;-71
2022/05/23 07:20:53;;;;;;;;;;;;;;;-145.19;100.00;57938.22;4972387;28;19918;-71
2022/05/23 07:23:19;;;;;;;;;;;;;;;-145.19;100.00;57938.22;4972544;28;20259;-70
2022/05/23 07:25:44;;;;;;;;;;;;;;;-145.19;100.00;57938.22;4973136;28;19931;-71
2022/05/23 07:28:10;;;;;;;;;;;;;;;-145.19;100.00;57938.22;4972116;28;20012;-71
2022/05/23 07:30:35;;;;;;;;;;;;;;;-145.19;100.00;57938.22;4972823;28;19962;-71
2022/05/23 07:33:00;;;;;;;;;;;;;;;-145.19;100.00;57938.22;4972043;28;19925;-71
2022/05/23 07:35:26;;;;;;;;;;;;;;;-145.19;100.00;57938.22;4968318;28;19922;-70
2022/05/23 07:37:51;;;;;;;;;;;;;;;-145.19;100.00;57938.22;4969461;28;19976;-71
2022/05/23 07:40:17;;;;;;;;;;;;;;;-145.19;100.00;57938.22;4971056;28;19922;-70
2022/05/23 07:42:43;;;;;;;;;;;;;;;-145.19;100.00;57938.22;4969320;28;19929;-70
2022/05/23 07:45:09;;;;;;;;;;;;;;;-145.19;100.00;57938.22;4968004;28;19918;-70
2022/05/23 07:47:34;;;;;;;;;;;;;;;-145.19;100.00;57938.22;4971558;28;19921;-71
2022/05/23 07:49:59;;;;;;;;;;;;;;;-145.19;100.00;57938.22;4971795;28;19921;-70
2022/05/23 07:52:25;;;;;;;;;;;;;;;-145.19;100.00;57938.22;4970866;28;20375;-71
2022/05/23 08:00:39;;;;;;;;;;;;;;;-145.19;100.00;57938.22;4911293;29;20013;-71
2022/05/23 08:03:06;;;;;;;;;;;;;;;-145.19;100.00;57938.22;4911208;29;20018;-71
2022/05/23 08:05:31;;;;;;;;;;;;;;;-145.19;100.00;57938.22;4939449;28;20327;-71
2022/05/23 08:07:57;;;;;;;;;;;;;;;-145.19;100.00;57938.22;4971651;28;20009;-71
2022/05/23 08:10:23;;;;;;;;;;;;;;;-145.19;100.00;57938.22;4971381;28;19929;-71
2022/05/23 08:12:52;;;;;;;;;;;;;;;-145.19;100.00;57938.22;4954279;28;19976;-71
2022/05/23 08:15:18;;;;;;;;;;;;;;;-145.19;100.00;57938.22;4970905;28;19918;-70
2022/05/23 08:17:43;;;;;;;;;;;;;;;-145.19;100.00;57938.22;4971290;28;19910;-71
2022/05/23 08:20:10;;;;;;;;;;;;;;;-145.19;100.00;57938.22;4967338;28;19925;-70
2022/05/23 08:22:35;;;;;;;;;;;;;;;-145.19;100.00;57938.22;4983247;28;20008;-71
2022/05/23 08:25:00;;;;;;;;;;;;;;;-145.19;100.00;57938.22;4975418;28;20057;-70
2022/05/23 08:27:25;;;;;;;;;;;;;;;-145.19;100.00;57938.22;4970734;28;19922;-70
2022/05/23 08:29:52;;;;;;;;;;;;;;;-145.19;100.00;57938.22;4971212;28;19956;-71
2022/05/23 08:32:18;;;;;;;;;;;;;;;-145.19;100.00;57938.22;4971210;28;19914;-70
2022/05/23 08:34:43;;;;;;;;;;;;;;;-145.19;100.00;57938.22;4970997;28;19914;-71
2022/05/23 08:37:08;;;;;;;;;;;;;;;-145.19;100.00;57938.22;4968911;28;19922;-71
2022/05/23 08:39:34;;;;;;;;;;;;;;;-145.19;100.00;57938.22;4976361;28;20016;-70
2022/05/23 08:42:03;;;;;;;;;;;;;;;-145.19;100.00;57938.22;4978046;28;19948;-71
2022/05/23 08:44:36;;;;;;;;;;;;;;;-145.19;100.00;57938.22;4987955;28;19925;-71
2022/05/23 08:47:02;;;;;;;;;;;;;;;-145.19;100.00;57938.22;4975253;28;19914;-71
2022/05/23 08:49:36;;;;;;;;;;;;;;;-145.19;100.00;57938.22;4970289;28;21286;-71
2022/05/23 08:52:04;;;;;;;;;;;;;;;-145.19;100.00;57938.22;4978395;28;20056;-71
2022/05/23 08:54:36;;;;;;;;;;;;;;;-145.19;100.00;57938.22;4979267;28;20016;-71
2022/05/23 08:57:03;;;;;;;;;;;;;;;-145.19;100.00;57938.22;4971048;28;19914;-71
2022/05/23 08:59:37;;;;;;;;;;;;;;;-145.19;100.00;57938.22;4977924;28;19925;-71
2022/05/23 09:02:12;;;;;;;;;;;;;;;-145.19;100.00;57938.22;4970974;28;20279;-70
2022/05/23 09:04:44;;;;;;;;;;;;;;;-145.19;100.00;57938.22;4970754;28;19918;-71
2022/05/23 09:07:39;;;;;;;;;;;;;;;-145.19;100.00;57938.22;4970534;28;19918;-71
2022/05/23 09:10:08;;;;;;;;;;;;;;;-145.19;100.00;57938.22;4953612;28;20008;-70
2022/05/23 09:12:34;;;;;;;;;;;;;;;-145.19;100.00;57938.22;4970802;28;19921;-71
2022/05/23 09:14:59;;;;;;;;;;;;;;;-145.19;100.00;57938.22;4970499;28;19923;-71
2022/05/23 09:17:37;;;;;;;;;;;;;;;-145.19;100.00;57938.22;4970498;28;19922;-71
2022/05/23 09:20:05;;;;;;;;;;;;;;;-145.19;100.00;57938.22;4970462;28;20383;-70
2022/05/23 09:22:43;;;;;;;;;;;;;;;-145.19;100.00;57938.22;4971177;28;20324;-71
2022/05/23 09:25:09;;;;;;;;;;;;;;;-145.19;100.00;57938.22;4969120;28;19926;-71
2022/05/23 09:27:36;;;;;;;;;;;;;;;-145.19;100.00;57938.22;4970733;28;19925;-70
2022/05/23 09:30:02;;;;;;;;;;;;;;;-145.19;100.00;57938.22;4970760;28;19961;-71
2022/05/23 09:32:32;;;;;;;;;;;;;;;-145.19;100.00;57938.22;4970717;28;19918;-71
2022/05/23 09:34:59;;;;;;;;;;;;;;;-145.19;100.00;57938.22;4970036;28;20001;-71
2022/05/23 09:37:46;;;;;;;;;;;;;;;-145.19;100.00;57938.22;4970621;28;19969;-71
2022/05/23 09:40:41;;;;;;;;;;;;;;;-145.19;100.00;57938.22;4967735;28;19921;-71
2022/05/23 09:49:16;;;;;;;;;;;;;;;-145.19;100.00;57938.22;4973763;28;19924;-71
2022/05/23 09:51:57;;;;;;;;;;;;;;;-145.19;100.00;57938.22;4974198;28;20297;-71
2022/05/23 09:54:43;;;;;;;;;;;;;;;-145.19;100.00;57938.22;4973329;28;19941;-71
2022/05/23 09:57:17;;;;;;;;;;;;;;;-145.19;100.00;57938.22;4972782;28;19936;-71
2022/05/23 09:59:43;;;;;;;;;;;;;;;-145.19;100.00;57938.22;4972748;28;19922;-71
2022/05/23 10:02:15;;;;;;;;;;;;;;;-145.19;100.00;57938.22;4973493;28;20393;-71
2022/05/23 10:04:43;;;;;;;;;;;;;;;-145.19;100.00;57938.22;4973376;28;20000;-71
2022/05/23 10:07:27;;;;;;;;;;;;;;;-145.19;100.00;57938.22;4973552;28;19914;-71
2022/05/23 10:10:00;;;;;;;;;;;;;;;-145.19;100.00;57938.22;4973326;28;19933;-71
2022/05/23 10:12:25;;;;;;;;;;;;;;;-145.19;100.00;57938.22;4973426;28;20375;-71
2022/05/23 10:14:52;;;;;;;;;;;;;;;-145.19;100.00;57938.22;4968145;28;19933;-71
2022/05/23 10:17:24;;;;;;;;;;;;;;;-145.19;100.00;57938.22;4973204;28;19922;-71
2022/05/23 10:19:50;;;;;;;;;;;;;;;-145.19;100.00;57938.22;4969520;28;19921;-70
2022/05/23 10:22:18;;;;;;;;;;;;;;;-145.19;100.00;57938.22;4971909;28;20301;-71
2022/05/23 10:24:53;;;;;;;;;;;;;;;-145.19;100.00;57938.22;4971903;28;19918;-71
2022/05/23 10:27:37;;;;;;;;;;;;;;;-145.19;100.00;57938.22;4970217;28;19925;-73
2022/05/23 10:30:05;;;;;;;;;;;;;;;-145.19;100.00;57938.22;4959347;28;19918;-70
2022/05/23 10:32:36;;;;;;;;;;;;;;;-145.19;100.00;57938.22;4972987;28;19918;-71
2022/05/23 10:35:06;;;;;;;;;;;;;;;-145.19;100.00;57938.22;4972478;28;20268;-71
2022/05/23 10:37:32;;;;;;;;;;;;;;;-145.19;100.00;57938.22;4972912;28;19965;-71
2022/05/23 10:42:42;;;;;;;;;;;;;;;-145.19;100.00;57938.22;4973391;28;19925;-71
2022/05/23 10:45:19;;;;;;;;;;;;;;;-145.19;100.00;57938.22;4986223;28;19914;-71
2022/05/23 10:48:03;;;;;;;;;;;;;;;-145.19;100.00;57938.22;4973474;28;20001;-71
2022/05/23 10:50:47;;;;;;;;;;;;;;;-145.19;100.00;57938.22;4980038;28;19967;-71
2022/05/23 10:53:23;;;;;;;;;;;;;;;-145.19;100.00;57938.22;4968359;28;19985;-71
2022/05/23 10:55:48;;;;;;;;;;;;;;;-145.19;100.00;57938.22;4968131;28;19914;-71
2022/05/23 10:58:33;;;;;;;;;;;;;;;-145.19;100.00;57938.22;4972192;28;19933;-71
2022/05/23 11:01:03;;;;;;;;;;;;;;;-145.19;100.00;57938.22;4972324;28;19971;-71
2022/05/23 11:03:46;;;;;;;;;;;;;;;-145.19;100.00;57938.22;4972388;28;19929;-71
2022/05/23 11:06:12;;;;;;;;;;;;;;;-145.19;100.00;57938.22;4972769;28;20463;-71
2022/05/23 11:08:37;;;;;;;;;;;;;;;-145.19;100.00;57938.22;4972291;28;19914;-72
2022/05/23 11:11:11;;;;;;;;;;;;;;;-145.19;100.00;57938.22;4972136;28;20295;-71
2022/05/23 11:13:36;;;;;;;;;;;;;;;-145.19;100.00;57938.22;4971922;28;19968;-71
2022/05/23 11:16:20;;;;;;;;;;;;;;;-145.19;100.00;57938.22;4971752;28;20432;-71
2022/05/23 11:18:51;;;;;;;;;;;;;;;-145.19;100.00;57938.22;4971976;28;19968;-71
2022/05/23 11:21:21;;;;;;;;;;;;;;;-145.19;100.00;57938.22;4972265;28;20387;-71
2022/05/23 11:24:07;;;;;;;;;;;;;;;-145.19;100.00;57938.22;4955666;28;19917;-71
2022/05/23 11:26:53;;;;;;;;;;;;;;;-145.19;100.00;57938.22;4970777;28;20465;-70
2022/05/23 11:34:54;;;;;;;;;;;;;;;-145.19;100.00;57938.22;4971475;28;19981;-71
2022/05/23 11:39:50;;;;;;;;;;;;;;;-145.19;100.00;57938.22;4971883;28;19918;-71
2022/05/23 11:42:21;;;;;;;;;;;;;;;-145.19;100.00;57938.22;4972152;28;19918;-71
2022/05/23 11:44:49;;;;;;;;;;;;;;;-145.19;100.00;57938.22;4971306;28;19920;-71
2022/05/23 11:47:21;;;;;;;;;;;;;;;-145.19;100.00;57938.22;4972120;28;19921;-71
2022/05/23 11:49:50;;;;;;;;;;;;;;;-145.19;100.00;57938.22;4971379;28;19921;-70
2022/05/23 11:52:22;;;;;;;;;;;;;;;-145.19;100.00;57938.22;4971897;28;19918;-71
2022/05/23 11:54:47;;;;;;;;;;;;;;;-145.19;100.00;57938.22;4971421;28;19914;-71
2022/05/23 11:57:14;;;;;;;;;;;;;;;-145.19;100.00;57938.22;4971814;28;19932;-71
2022/05/23 11:59:39;;;;;;;;;;;;;;;-145.19;100.00;57938.22;4971028;28;20036;-71
2022/05/23 12:02:11;;;;;;;;;;;;;;;-145.19;100.00;57938.22;4971942;28;20033;-70
2022/05/23 12:04:48;;;;;;;;;;;;;;;-145.19;100.00;57938.22;4971009;28;19998;-71
2022/05/23 12:07:32;;;;;;;;;;;;;;;-145.19;100.00;57938.22;4971203;28;20091;-71
2022/05/23 12:10:15;;;;;;;;;;;;;;;-145.19;100.00;57938.22;4971376;28;20359;-71
2022/05/23 12:12:53;;;;;;;;;;;;;;;-145.19;100.00;57938.22;4971721;28;19914;-71
2022/05/23 12:15:36;;;;;;;;;;;;;;;-145.19;100.00;57938.22;4986588;28;19913;-71
2022/05/23 12:18:02;;;;;;;;;;;;;;;-145.19;100.00;57938.22;4962930;28;19996;-70
2022/05/23 12:20:28;;;;;;;;;;;;;;;-145.19;100.00;57938.22;4981601;28;20012;-71
2022/05/23 12:23:10;;;;;;;;;;;;;;;-145.19;100.00;57938.22;4971252;28;19926;-71
2022/05/23 12:25:35;;;;;;;;;;;;;;;-145.19;100.00;57938.22;4970921;28;19921;-71
2022/05/23 12:28:08;;;;;;;;;;;;;;;-145.19;100.00;57938.22;4971507;28;20306;-71
2022/05/23 12:30:39;;;;;;;;;;;;;;;-145.19;100.00;57938.22;4970251;28;19924;-71
2022/05/23 12:33:07;;;;;;;;;;;;;;;-145.19;100.00;57938.22;4971364;28;20008;-71
2022/05/23 12:35:32;;;;;;;;;;;;;;;-145.19;100.00;57938.22;4970588;28;19922;-71
2022/05/23 12:38:09;;;;;;;;;;;;;;;-145.19;100.00;57938.22;4970595;28;19918;-71
2022/05/23 12:40:37;;;;;;;;;;;;;;;-145.19;100.00;57938.22;4970696;28;20149;-71
2022/05/23 12:43:05;;;;;;;;;;;;;;;-145.19;100.00;57938.22;4967996;28;19922;-71
2022/05/23 12:45:48;;;;;;;;;;;;;;;-145.19;100.00;57938.22;4968789;28;20043;-70
2022/05/23 12:48:16;;;;;;;;;;;;;;;-145.19;100.00;57938.22;4971244;28;19922;-71
2022/05/23 12:50:48;;;;;;;;;;;;;;;-145.19;100.00;57938.22;4970101;28;19925;-71
2022/05/23 12:53:32;;;;;;;;;;;;;;;-145.19;100.00;57938.22;4970800;28;20415;-71
2022/05/23 12:56:24;;;;;;;;;;;;;;;-145.19;100.00;57938.22;4969010;28;19918;-71
2022/05/23 12:58:55;;;;;;;;;;;;;;;-145.19;100.00;57938.22;4967252;28;19996;-71
2022/05/23 13:01:26;;;;;;;;;;;;;;;-145.19;100.00;57938.22;4970355;28;19914;-71
2022/05/23 13:03:52;;;;;;;;;;;;;;;-145.19;100.00;57938.22;4970692;28;19922;-71
2022/05/23 13:06:17;;;;;;;;;;;;;;;-145.19;100.00;57938.22;4970629;28;19925;-71
2022/05/23 13:08:45;;;;;;;;;;;;;;;-145.19;100.00;57938.22;4970568;28;19914;-70
2022/05/23 13:11:23;;;;;;;;;;;;;;;-145.19;100.00;57938.22;4970019;28;19925;-71
2022/05/23 13:13:49;;;;;;;;;;;;;;;-145.19;100.00;57938.22;4971353;28;19914;-71
2022/05/23 13:16:16;;;;;;;;;;;;;;;-145.19;100.00;57938.22;4969842;28;20076;-71
2022/05/23 13:24:11;;;;;;;;;;;;;;;-145.19;100.00;57938.22;4974471;28;19976;-71
2022/05/23 13:26:36;;;;;;;;;;;;;;;-145.19;100.00;57938.22;4974768;28;19922;-72
2022/05/23 13:29:02;;;;;;;;;;;;;;;-145.19;100.00;57938.22;4974513;28;20383;-71
2022/05/23 13:31:29;;;;;;;;;;;;;;;-145.19;100.00;57938.22;4956503;28;20279;-70
2022/05/23 13:33:57;;;;;;;;;;;;;;;-145.19;100.00;57938.22;4974686;28;20060;-72